sensor_id;sensor_type;location;lat;lon;timestamp;P1;durP1;ratioP1;P2;durP2;ratioP2
17175;SDS011;8703;48.996;9.594;2022-11-20T00:00:00;26.30;;;9.30;;
17175;SDS011;8703;48.996;9.594;2022-11-20T00:02:28;27.13;;;9.13;;
17175;SDS011;8703;48.996;9.594;2022-11-20T00:04:55;26.50;;;9.53;;
17175;SDS011;8703;48.996;9.594;2022-11-20T00:07:23;24.33;;;9.00;;
17175;SDS011;8703;48.996;9.594;2022-11-20T00:09:50;23.47;;;9.80;;
17175;SDS011;8703;48.996;9.594;2022-11-20T00:12:18;20.67;;;9.07;;
17175;SDS011;8703;48.996;9.594;2022-11-20T00:14:46;22.10;;;9.20;;
17175;SDS011;8703;48.996;9.594;2022-11-20T00:17:14;26.17;;;9.23;;
17175;SDS011;8703;48.996;9.594;2022-11-20T00:19:41;22.97;;;9.57;;
17175;SDS011;8703;48.996;9.594;2022-11-20T00:22:08;22.70;;;9.17;;
17175;SDS011;8703;48.996;9.594;2022-11-20T00:24:36;25.43;;;9.40;;
17175;SDS011;8703;48.996;9.594;2022-11-20T00:27:03;22.63;;;8.67;;
17175;SDS011;8703;48.996;9.594;2022-11-20T00:29:30;26.27;;;9.30;;
17175;SDS011;8703;48.996;9.594;2022-11-20T00:31:59;22.53;;;9.77;;
17175;SDS011;8703;48.996;9.594;2022-11-20T00:34:26;26.27;;;9.80;;
17175;SDS011;8703;48.996;9.594;2022-11-20T00:36:54;23.13;;;10.03;;
17175;SDS011;8703;48.996;9.594;2022-11-20T00:39:21;22.63;;;10.60;;
17175;SDS011;8703;48.996;9.594;2022-11-20T00:41:49;26.33;;;10.93;;
17175;SDS011;8703;48.996;9.594;2022-11-20T00:44:16;27.03;;;10.60;;
17175;SDS011;8703;48.996;9.594;2022-11-20T00:46:43;25.87;;;10.73;;
17175;SDS011;8703;48.996;9.594;2022-11-20T00:49:12;26.57;;;11.07;;
17175;SDS011;8703;48.996;9.594;2022-11-20T00:51:39;27.57;;;11.07;;
17175;SDS011;8703;48.996;9.594;2022-11-20T00:54:07;30.33;;;12.27;;
17175;SDS011;8703;48.996;9.594;2022-11-20T00:56:34;27.43;;;11.30;;
17175;SDS011;8703;48.996;9.594;2022-11-20T00:59:02;27.83;;;10.90;;
17175;SDS011;8703;48.996;9.594;2022-11-20T01:01:29;28.30;;;11.33;;
17175;SDS011;8703;48.996;9.594;2022-11-20T01:03:57;26.73;;;11.40;;
17175;SDS011;8703;48.996;9.594;2022-11-20T01:06:27;28.00;;;11.20;;
17175;SDS011;8703;48.996;9.594;2022-11-20T01:08:56;28.17;;;10.83;;
17175;SDS011;8703;48.996;9.594;2022-11-20T01:11:25;25.17;;;10.63;;
17175;SDS011;8703;48.996;9.594;2022-11-20T01:13:54;27.00;;;11.67;;
17175;SDS011;8703;48.996;9.594;2022-11-20T01:16:23;27.37;;;11.17;;
17175;SDS011;8703;48.996;9.594;2022-11-20T01:18:52;26.60;;;11.63;;
17175;SDS011;8703;48.996;9.594;2022-11-20T01:21:22;28.63;;;10.97;;
17175;SDS011;8703;48.996;9.594;2022-11-20T01:23:52;26.50;;;11.30;;
17175;SDS011;8703;48.996;9.594;2022-11-20T01:26:20;25.53;;;10.57;;
17175;SDS011;8703;48.996;9.594;2022-11-20T01:28:48;22.53;;;10.27;;
17175;SDS011;8703;48.996;9.594;2022-11-20T01:31:16;24.40;;;10.73;;
17175;SDS011;8703;48.996;9.594;2022-11-20T01:33:45;21.00;;;9.77;;
17175;SDS011;8703;48.996;9.594;2022-11-20T01:36:13;28.70;;;10.67;;
17175;SDS011;8703;48.996;9.594;2022-11-20T01:38:41;27.53;;;10.77;;
17175;SDS011;8703;48.996;9.594;2022-11-20T01:41:11;21.60;;;10.60;;
17175;SDS011;8703;48.996;9.594;2022-11-20T01:44:00;24.27;;;10.70;;
17175;SDS011;8703;48.996;9.594;2022-11-20T01:46:28;23.27;;;10.37;;
17175;SDS011;8703;48.996;9.594;2022-11-20T01:48:56;25.57;;;10.30;;
17175;SDS011;8703;48.996;9.594;2022-11-20T01:51:27;24.83;;;10.40;;
17175;SDS011;8703;48.996;9.594;2022-11-20T01:53:57;21.33;;;10.17;;
17175;SDS011;8703;48.996;9.594;2022-11-20T01:56:29;24.03;;;11.07;;
17175;SDS011;8703;48.996;9.594;2022-11-20T01:58:59;24.33;;;10.70;;
17175;SDS011;8703;48.996;9.594;2022-11-20T02:01:28;26.53;;;10.90;;
17175;SDS011;8703;48.996;9.594;2022-11-20T02:03:55;24.60;;;11.00;;
17175;SDS011;8703;48.996;9.594;2022-11-20T02:06:23;23.03;;;11.30;;
17175;SDS011;8703;48.996;9.594;2022-11-20T02:08:52;25.03;;;10.47;;
17175;SDS011;8703;48.996;9.594;2022-11-20T02:11:20;26.97;;;11.10;;
17175;SDS011;8703;48.996;9.594;2022-11-20T02:13:49;27.43;;;10.83;;
17175;SDS011;8703;48.996;9.594;2022-11-20T02:16:16;41.43;;;10.87;;
17175;SDS011;8703;48.996;9.594;2022-11-20T02:18:47;24.93;;;10.93;;
17175;SDS011;8703;48.996;9.594;2022-11-20T02:21:18;26.60;;;10.73;;
17175;SDS011;8703;48.996;9.594;2022-11-20T02:24:02;24.53;;;10.83;;
17175;SDS011;8703;48.996;9.594;2022-11-20T02:26:33;26.47;;;10.67;;
17175;SDS011;8703;48.996;9.594;2022-11-20T02:29:04;22.23;;;9.97;;
17175;SDS011;8703;48.996;9.594;2022-11-20T02:31:36;23.33;;;10.63;;
17175;SDS011;8703;48.996;9.594;2022-11-20T02:34:05;25.20;;;11.17;;
17175;SDS011;8703;48.996;9.594;2022-11-20T02:36:33;28.20;;;10.97;;
17175;SDS011;8703;48.996;9.594;2022-11-20T02:39:02;28.17;;;11.03;;
17175;SDS011;8703;48.996;9.594;2022-11-20T02:41:30;30.63;;;11.30;;
17175;SDS011;8703;48.996;9.594;2022-11-20T02:44:01;31.33;;;11.70;;
17175;SDS011;8703;48.996;9.594;2022-11-20T02:46:29;27.80;;;11.40;;
17175;SDS011;8703;48.996;9.594;2022-11-20T02:48:57;29.23;;;11.07;;
17175;SDS011;8703;48.996;9.594;2022-11-20T02:51:25;27.43;;;10.83;;
17175;SDS011;8703;48.996;9.594;2022-11-20T02:53:52;25.50;;;10.33;;
17175;SDS011;8703;48.996;9.594;2022-11-20T02:56:21;21.57;;;9.73;;
17175;SDS011;8703;48.996;9.594;2022-11-20T02:58:48;27.73;;;11.00;;
17175;SDS011;8703;48.996;9.594;2022-11-20T03:01:16;29.33;;;11.67;;
17175;SDS011;8703;48.996;9.594;2022-11-20T03:03:43;25.30;;;9.60;;
17175;SDS011;8703;48.996;9.594;2022-11-20T03:06:10;26.20;;;10.77;;
17175;SDS011;8703;48.996;9.594;2022-11-20T03:08:38;21.70;;;10.33;;
17175;SDS011;8703;48.996;9.594;2022-11-20T03:11:06;24.90;;;10.50;;
17175;SDS011;8703;48.996;9.594;2022-11-20T03:13:35;23.87;;;10.77;;
17175;SDS011;8703;48.996;9.594;2022-11-20T03:16:06;26.90;;;10.20;;
17175;SDS011;8703;48.996;9.594;2022-11-20T03:18:35;20.07;;;9.93;;
17175;SDS011;8703;48.996;9.594;2022-11-20T03:21:02;22.20;;;10.03;;
17175;SDS011;8703;48.996;9.594;2022-11-20T03:23:30;22.33;;;10.20;;
17175;SDS011;8703;48.996;9.594;2022-11-20T03:26:11;21.17;;;9.90;;
17175;SDS011;8703;48.996;9.594;2022-11-20T03:28:41;19.57;;;10.50;;
17175;SDS011;8703;48.996;9.594;2022-11-20T03:31:12;19.20;;;9.40;;
17175;SDS011;8703;48.996;9.594;2022-11-20T03:33:41;18.13;;;9.33;;
17175;SDS011;8703;48.996;9.594;2022-11-20T03:36:09;17.13;;;8.90;;
17175;SDS011;8703;48.996;9.594;2022-11-20T03:38:38;28.97;;;9.00;;
17175;SDS011;8703;48.996;9.594;2022-11-20T03:41:07;18.33;;;9.60;;
17175;SDS011;8703;48.996;9.594;2022-11-20T03:43:35;16.87;;;8.83;;
17175;SDS011;8703;48.996;9.594;2022-11-20T03:46:05;16.80;;;8.93;;
17175;SDS011;8703;48.996;9.594;2022-11-20T03:48:32;18.77;;;8.97;;
17175;SDS011;8703;48.996;9.594;2022-11-20T03:51:06;15.93;;;8.70;;
17175;SDS011;8703;48.996;9.594;2022-11-20T03:53:35;15.77;;;8.17;;
17175;SDS011;8703;48.996;9.594;2022-11-20T03:56:02;12.60;;;7.67;;
17175;SDS011;8703;48.996;9.594;2022-11-20T03:58:31;17.03;;;8.63;;
17175;SDS011;8703;48.996;9.594;2022-11-20T04:01:05;12.73;;;7.77;;
17175;SDS011;8703;48.996;9.594;2022-11-20T04:03:33;14.73;;;7.70;;
17175;SDS011;8703;48.996;9.594;2022-11-20T04:06:01;12.17;;;7.00;;
17175;SDS011;8703;48.996;9.594;2022-11-20T04:08:29;15.33;;;8.10;;
17175;SDS011;8703;48.996;9.594;2022-11-20T04:11:07;12.17;;;7.50;;
17175;SDS011;8703;48.996;9.594;2022-11-20T04:13:35;13.60;;;8.00;;
17175;SDS011;8703;48.996;9.594;2022-11-20T04:16:04;12.80;;;7.37;;
17175;SDS011;8703;48.996;9.594;2022-11-20T04:18:32;17.23;;;7.53;;
17175;SDS011;8703;48.996;9.594;2022-11-20T04:21:00;12.10;;;6.90;;
17175;SDS011;8703;48.996;9.594;2022-11-20T04:23:28;13.53;;;6.73;;
17175;SDS011;8703;48.996;9.594;2022-11-20T04:26:00;9.90;;;5.90;;
17175;SDS011;8703;48.996;9.594;2022-11-20T04:28:28;10.57;;;5.60;;
17175;SDS011;8703;48.996;9.594;2022-11-20T04:31:01;12.87;;;5.70;;
17175;SDS011;8703;48.996;9.594;2022-11-20T04:33:30;11.87;;;5.93;;
17175;SDS011;8703;48.996;9.594;2022-11-20T04:35:59;11.37;;;5.30;;
17175;SDS011;8703;48.996;9.594;2022-11-20T04:38:28;9.77;;;4.87;;
17175;SDS011;8703;48.996;9.594;2022-11-20T04:40:56;9.33;;;5.20;;
17175;SDS011;8703;48.996;9.594;2022-11-20T04:43:24;7.97;;;4.87;;
17175;SDS011;8703;48.996;9.594;2022-11-20T04:45:51;7.90;;;4.90;;
17175;SDS011;8703;48.996;9.594;2022-11-20T04:48:19;9.87;;;5.37;;
17175;SDS011;8703;48.996;9.594;2022-11-20T04:50:48;12.47;;;5.73;;
17175;SDS011;8703;48.996;9.594;2022-11-20T04:53:15;8.23;;;5.63;;
17175;SDS011;8703;48.996;9.594;2022-11-20T04:55:43;11.63;;;6.00;;
17175;SDS011;8703;48.996;9.594;2022-11-20T04:58:11;8.60;;;4.90;;
17175;SDS011;8703;48.996;9.594;2022-11-20T05:00:38;9.53;;;4.80;;
17175;SDS011;8703;48.996;9.594;2022-11-20T05:03:06;6.17;;;4.47;;
17175;SDS011;8703;48.996;9.594;2022-11-20T05:05:33;8.00;;;4.87;;
17175;SDS011;8703;48.996;9.594;2022-11-20T05:08:02;7.40;;;4.83;;
17175;SDS011;8703;48.996;9.594;2022-11-20T05:10:30;8.03;;;4.50;;
17175;SDS011;8703;48.996;9.594;2022-11-20T05:12:57;6.93;;;4.37;;
17175;SDS011;8703;48.996;9.594;2022-11-20T05:15:24;7.70;;;4.47;;
17175;SDS011;8703;48.996;9.594;2022-11-20T05:17:52;7.17;;;4.47;;
17175;SDS011;8703;48.996;9.594;2022-11-20T05:20:20;9.77;;;4.80;;
17175;SDS011;8703;48.996;9.594;2022-11-20T05:22:47;8.67;;;4.70;;
17175;SDS011;8703;48.996;9.594;2022-11-20T05:25:16;5.47;;;4.10;;
17175;SDS011;8703;48.996;9.594;2022-11-20T05:27:43;6.27;;;3.97;;
17175;SDS011;8703;48.996;9.594;2022-11-20T05:30:11;8.13;;;3.93;;
17175;SDS011;8703;48.996;9.594;2022-11-20T05:32:39;8.13;;;3.70;;
17175;SDS011;8703;48.996;9.594;2022-11-20T05:35:07;6.17;;;4.00;;
17175;SDS011;8703;48.996;9.594;2022-11-20T05:37:34;9.37;;;4.00;;
17175;SDS011;8703;48.996;9.594;2022-11-20T05:40:02;6.80;;;4.37;;
17175;SDS011;8703;48.996;9.594;2022-11-20T05:42:31;6.80;;;4.00;;
17175;SDS011;8703;48.996;9.594;2022-11-20T05:44:59;9.83;;;3.90;;
17175;SDS011;8703;48.996;9.594;2022-11-20T05:47:27;10.37;;;4.13;;
17175;SDS011;8703;48.996;9.594;2022-11-20T05:49:57;6.53;;;4.07;;
17175;SDS011;8703;48.996;9.594;2022-11-20T05:52:24;5.13;;;3.67;;
17175;SDS011;8703;48.996;9.594;2022-11-20T05:54:55;5.43;;;3.60;;
17175;SDS011;8703;48.996;9.594;2022-11-20T05:57:23;6.60;;;4.00;;
17175;SDS011;8703;48.996;9.594;2022-11-20T05:59:51;9.30;;;3.80;;
17175;SDS011;8703;48.996;9.594;2022-11-20T06:02:19;5.07;;;3.50;;
17175;SDS011;8703;48.996;9.594;2022-11-20T06:04:46;7.77;;;3.57;;
17175;SDS011;8703;48.996;9.594;2022-11-20T06:07:13;5.03;;;3.83;;
17175;SDS011;8703;48.996;9.594;2022-11-20T06:09:41;4.17;;;3.40;;
17175;SDS011;8703;48.996;9.594;2022-11-20T06:12:08;7.17;;;3.10;;
17175;SDS011;8703;48.996;9.594;2022-11-20T06:14:36;4.67;;;2.90;;
17175;SDS011;8703;48.996;9.594;2022-11-20T06:17:04;8.10;;;3.90;;
17175;SDS011;8703;48.996;9.594;2022-11-20T06:19:32;5.80;;;3.20;;
17175;SDS011;8703;48.996;9.594;2022-11-20T06:21:59;6.30;;;3.30;;
17175;SDS011;8703;48.996;9.594;2022-11-20T06:24:27;7.03;;;3.50;;
17175;SDS011;8703;48.996;9.594;2022-11-20T06:26:54;5.90;;;3.50;;
17175;SDS011;8703;48.996;9.594;2022-11-20T06:29:21;4.30;;;3.27;;
17175;SDS011;8703;48.996;9.594;2022-11-20T06:31:49;5.57;;;3.20;;
17175;SDS011;8703;48.996;9.594;2022-11-20T06:34:18;5.60;;;3.40;;
17175;SDS011;8703;48.996;9.594;2022-11-20T06:36:45;6.27;;;3.07;;
17175;SDS011;8703;48.996;9.594;2022-11-20T06:39:12;5.07;;;3.57;;
17175;SDS011;8703;48.996;9.594;2022-11-20T06:41:40;7.50;;;3.43;;
17175;SDS011;8703;48.996;9.594;2022-11-20T06:44:07;6.47;;;3.43;;
17175;SDS011;8703;48.996;9.594;2022-11-20T06:46:35;3.73;;;3.33;;
17175;SDS011;8703;48.996;9.594;2022-11-20T06:49:02;7.10;;;4.50;;
17175;SDS011;8703;48.996;9.594;2022-11-20T06:51:32;5.70;;;3.70;;
17175;SDS011;8703;48.996;9.594;2022-11-20T06:53:59;5.07;;;3.17;;
17175;SDS011;8703;48.996;9.594;2022-11-20T06:56:27;10.40;;;3.40;;
17175;SDS011;8703;48.996;9.594;2022-11-20T06:58:54;6.80;;;2.90;;
17175;SDS011;8703;48.996;9.594;2022-11-20T07:01:22;5.47;;;3.27;;
17175;SDS011;8703;48.996;9.594;2022-11-20T07:03:49;5.03;;;3.30;;
17175;SDS011;8703;48.996;9.594;2022-11-20T07:06:17;6.83;;;3.33;;
17175;SDS011;8703;48.996;9.594;2022-11-20T07:08:46;4.97;;;3.23;;
17175;SDS011;8703;48.996;9.594;2022-11-20T07:11:13;8.57;;;3.67;;
17175;SDS011;8703;48.996;9.594;2022-11-20T07:13:41;5.60;;;3.47;;
17175;SDS011;8703;48.996;9.594;2022-11-20T07:16:08;7.17;;;3.77;;
17175;SDS011;8703;48.996;9.594;2022-11-20T07:18:36;4.47;;;3.07;;
17175;SDS011;8703;48.996;9.594;2022-11-20T07:21:04;6.10;;;3.70;;
17175;SDS011;8703;48.996;9.594;2022-11-20T07:23:32;6.43;;;3.40;;
17175;SDS011;8703;48.996;9.594;2022-11-20T07:26:03;7.90;;;3.93;;
17175;SDS011;8703;48.996;9.594;2022-11-20T07:28:31;6.53;;;3.70;;
17175;SDS011;8703;48.996;9.594;2022-11-20T07:30:58;6.97;;;3.67;;
17175;SDS011;8703;48.996;9.594;2022-11-20T07:33:26;11.83;;;4.17;;
17175;SDS011;8703;48.996;9.594;2022-11-20T07:35:53;6.00;;;3.53;;
17175;SDS011;8703;48.996;9.594;2022-11-20T07:38:21;7.47;;;3.97;;
17175;SDS011;8703;48.996;9.594;2022-11-20T07:40:48;5.63;;;3.87;;
17175;SDS011;8703;48.996;9.594;2022-11-20T07:43:22;8.30;;;3.80;;
17175;SDS011;8703;48.996;9.594;2022-11-20T07:45:50;6.10;;;3.47;;
17175;SDS011;8703;48.996;9.594;2022-11-20T07:48:17;5.60;;;3.10;;
17175;SDS011;8703;48.996;9.594;2022-11-20T07:50:44;4.90;;;2.90;;
17175;SDS011;8703;48.996;9.594;2022-11-20T07:53:12;7.70;;;3.40;;
17175;SDS011;8703;48.996;9.594;2022-11-20T07:55:45;7.63;;;3.53;;
17175;SDS011;8703;48.996;9.594;2022-11-20T07:58:13;6.40;;;3.03;;
17175;SDS011;8703;48.996;9.594;2022-11-20T08:00:41;8.60;;;3.27;;
17175;SDS011;8703;48.996;9.594;2022-11-20T08:03:09;8.73;;;3.93;;
17175;SDS011;8703;48.996;9.594;2022-11-20T08:05:36;6.83;;;3.80;;
17175;SDS011;8703;48.996;9.594;2022-11-20T08:08:04;5.57;;;3.97;;
17175;SDS011;8703;48.996;9.594;2022-11-20T08:10:31;5.77;;;3.47;;
17175;SDS011;8703;48.996;9.594;2022-11-20T08:12:59;7.37;;;4.27;;
17175;SDS011;8703;48.996;9.594;2022-11-20T08:15:48;12.57;;;7.97;;
17175;SDS011;8703;48.996;9.594;2022-11-20T08:18:16;8.00;;;5.70;;
17175;SDS011;8703;48.996;9.594;2022-11-20T08:20:44;7.60;;;4.60;;
17175;SDS011;8703;48.996;9.594;2022-11-20T08:23:11;9.67;;;5.30;;
17175;SDS011;8703;48.996;9.594;2022-11-20T08:25:39;6.90;;;4.20;;
17175;SDS011;8703;48.996;9.594;2022-11-20T08:28:07;6.90;;;4.57;;
17175;SDS011;8703;48.996;9.594;2022-11-20T08:30:35;9.47;;;5.00;;
17175;SDS011;8703;48.996;9.594;2022-11-20T08:33:05;8.60;;;4.73;;
17175;SDS011;8703;48.996;9.594;2022-11-20T08:35:34;7.07;;;3.93;;
17175;SDS011;8703;48.996;9.594;2022-11-20T08:38:01;6.03;;;3.83;;
17175;SDS011;8703;48.996;9.594;2022-11-20T08:40:29;6.90;;;4.33;;
17175;SDS011;8703;48.996;9.594;2022-11-20T08:42:57;6.97;;;4.00;;
17175;SDS011;8703;48.996;9.594;2022-11-20T08:45:24;9.17;;;4.40;;
17175;SDS011;8703;48.996;9.594;2022-11-20T08:47:52;7.33;;;4.20;;
17175;SDS011;8703;48.996;9.594;2022-11-20T08:50:20;8.00;;;4.20;;
17175;SDS011;8703;48.996;9.594;2022-11-20T08:52:48;6.13;;;3.97;;
17175;SDS011;8703;48.996;9.594;2022-11-20T08:55:15;6.37;;;4.50;;
17175;SDS011;8703;48.996;9.594;2022-11-20T08:57:43;8.57;;;4.40;;
17175;SDS011;8703;48.996;9.594;2022-11-20T09:00:10;7.63;;;4.07;;
17175;SDS011;8703;48.996;9.594;2022-11-20T09:02:39;9.80;;;4.03;;
17175;SDS011;8703;48.996;9.594;2022-11-20T09:05:06;9.07;;;4.30;;
17175;SDS011;8703;48.996;9.594;2022-11-20T09:07:35;7.30;;;4.70;;
17175;SDS011;8703;48.996;9.594;2022-11-20T09:10:03;8.87;;;4.60;;
17175;SDS011;8703;48.996;9.594;2022-11-20T09:12:32;9.43;;;5.70;;
17175;SDS011;8703;48.996;9.594;2022-11-20T09:15:00;10.27;;;5.13;;
17175;SDS011;8703;48.996;9.594;2022-11-20T09:17:27;8.93;;;5.30;;
17175;SDS011;8703;48.996;9.594;2022-11-20T09:19:54;13.13;;;5.70;;
17175;SDS011;8703;48.996;9.594;2022-11-20T09:22:22;7.30;;;4.90;;
17175;SDS011;8703;48.996;9.594;2022-11-20T09:24:51;7.93;;;4.97;;
17175;SDS011;8703;48.996;9.594;2022-11-20T09:27:18;8.70;;;6.23;;
17175;SDS011;8703;48.996;9.594;2022-11-20T09:29:47;13.43;;;8.40;;
17175;SDS011;8703;48.996;9.594;2022-11-20T09:32:14;8.37;;;5.27;;
17175;SDS011;8703;48.996;9.594;2022-11-20T09:34:41;10.07;;;4.50;;
17175;SDS011;8703;48.996;9.594;2022-11-20T09:37:09;8.23;;;4.77;;
17175;SDS011;8703;48.996;9.594;2022-11-20T09:39:36;16.77;;;6.40;;
17175;SDS011;8703;48.996;9.594;2022-11-20T09:45:06;12.13;;;5.40;;
17175;SDS011;8703;48.996;9.594;2022-11-20T09:47:53;7.87;;;5.17;;
17175;SDS011;8703;48.996;9.594;2022-11-20T09:50:31;7.23;;;4.20;;
17175;SDS011;8703;48.996;9.594;2022-11-20T09:53:11;5.57;;;3.37;;
17175;SDS011;8703;48.996;9.594;2022-11-20T09:55:40;7.43;;;3.87;;
17175;SDS011;8703;48.996;9.594;2022-11-20T09:58:13;4.03;;;2.80;;
17175;SDS011;8703;48.996;9.594;2022-11-20T10:00:45;6.37;;;3.73;;
17175;SDS011;8703;48.996;9.594;2022-11-20T10:03:14;9.30;;;4.93;;
17175;SDS011;8703;48.996;9.594;2022-11-20T10:05:45;10.83;;;5.33;;
17175;SDS011;8703;48.996;9.594;2022-11-20T10:08:16;9.30;;;4.93;;
17175;SDS011;8703;48.996;9.594;2022-11-20T10:10:46;7.90;;;5.40;;
17175;SDS011;8703;48.996;9.594;2022-11-20T10:13:23;8.77;;;5.13;;
17175;SDS011;8703;48.996;9.594;2022-11-20T10:16:01;9.17;;;5.53;;
17175;SDS011;8703;48.996;9.594;2022-11-20T10:18:41;14.73;;;5.20;;
17175;SDS011;8703;48.996;9.594;2022-11-20T10:21:16;8.87;;;5.27;;
17175;SDS011;8703;48.996;9.594;2022-11-20T10:23:53;10.73;;;5.00;;
17175;SDS011;8703;48.996;9.594;2022-11-20T10:26:52;7.70;;;5.13;;
17175;SDS011;8703;48.996;9.594;2022-11-20T10:29:28;6.73;;;5.03;;
17175;SDS011;8703;48.996;9.594;2022-11-20T10:32:00;9.33;;;4.87;;
17175;SDS011;8703;48.996;9.594;2022-11-20T10:34:30;8.20;;;4.83;;
17175;SDS011;8703;48.996;9.594;2022-11-20T10:37:00;7.00;;;4.43;;
17175;SDS011;8703;48.996;9.594;2022-11-20T10:39:32;7.87;;;4.50;;
17175;SDS011;8703;48.996;9.594;2022-11-20T10:42:04;11.03;;;7.27;;
17175;SDS011;8703;48.996;9.594;2022-11-20T10:44:38;8.70;;;4.90;;
17175;SDS011;8703;48.996;9.594;2022-11-20T10:47:24;6.47;;;4.10;;
17175;SDS011;8703;48.996;9.594;2022-11-20T10:49:53;9.47;;;4.50;;
17175;SDS011;8703;48.996;9.594;2022-11-20T10:52:23;10.67;;;7.47;;
17175;SDS011;8703;48.996;9.594;2022-11-20T10:54:56;9.83;;;4.80;;
17175;SDS011;8703;48.996;9.594;2022-11-20T10:57:31;7.67;;;4.40;;
17175;SDS011;8703;48.996;9.594;2022-11-20T11:00:10;6.20;;;4.17;;
17175;SDS011;8703;48.996;9.594;2022-11-20T11:02:39;10.13;;;5.90;;
17175;SDS011;8703;48.996;9.594;2022-11-20T11:05:31;6.33;;;4.57;;
17175;SDS011;8703;48.996;9.594;2022-11-20T11:08:00;6.27;;;3.93;;
17175;SDS011;8703;48.996;9.594;2022-11-20T11:10:30;6.40;;;4.20;;
17175;SDS011;8703;48.996;9.594;2022-11-20T11:13:02;5.63;;;4.00;;
17175;SDS011;8703;48.996;9.594;2022-11-20T11:15:37;6.20;;;4.07;;
17175;SDS011;8703;48.996;9.594;2022-11-20T11:18:07;4.63;;;3.33;;
17175;SDS011;8703;48.996;9.594;2022-11-20T11:20:35;5.63;;;3.90;;
17175;SDS011;8703;48.996;9.594;2022-11-20T11:23:03;5.77;;;3.20;;
17175;SDS011;8703;48.996;9.594;2022-11-20T11:25:32;6.30;;;3.80;;
17175;SDS011;8703;48.996;9.594;2022-11-20T11:28:00;4.13;;;3.13;;
17175;SDS011;8703;48.996;9.594;2022-11-20T11:30:30;5.07;;;3.00;;
17175;SDS011;8703;48.996;9.594;2022-11-20T11:33:09;3.37;;;2.70;;
17175;SDS011;8703;48.996;9.594;2022-11-20T11:35:43;4.33;;;3.10;;
17175;SDS011;8703;48.996;9.594;2022-11-20T11:38:13;3.80;;;2.63;;
17175;SDS011;8703;48.996;9.594;2022-11-20T11:40:43;15.10;;;8.20;;
17175;SDS011;8703;48.996;9.594;2022-11-20T11:43:17;4.10;;;2.90;;
17175;SDS011;8703;48.996;9.594;2022-11-20T11:46:04;3.33;;;2.60;;
17175;SDS011;8703;48.996;9.594;2022-11-20T11:48:56;3.00;;;2.17;;
17175;SDS011;8703;48.996;9.594;2022-11-20T11:51:26;3.60;;;2.33;;
17175;SDS011;8703;48.996;9.594;2022-11-20T11:53:58;3.97;;;2.80;;
17175;SDS011;8703;48.996;9.594;2022-11-20T11:56:28;4.00;;;3.00;;
17175;SDS011;8703;48.996;9.594;2022-11-20T11:58:56;4.13;;;2.97;;
17175;SDS011;8703;48.996;9.594;2022-11-20T12:01:29;5.97;;;3.10;;
17175;SDS011;8703;48.996;9.594;2022-11-20T12:04:02;8.20;;;3.10;;
17175;SDS011;8703;48.996;9.594;2022-11-20T12:06:32;5.47;;;3.60;;
17175;SDS011;8703;48.996;9.594;2022-11-20T12:09:02;7.40;;;3.80;;
17175;SDS011;8703;48.996;9.594;2022-11-20T12:11:31;7.10;;;3.60;;
17175;SDS011;8703;48.996;9.594;2022-11-20T12:14:04;5.33;;;3.87;;
17175;SDS011;8703;48.996;9.594;2022-11-20T12:16:39;4.90;;;3.47;;
17175;SDS011;8703;48.996;9.594;2022-11-20T12:19:07;8.10;;;3.30;;
17175;SDS011;8703;48.996;9.594;2022-11-20T12:21:39;4.27;;;3.50;;
17175;SDS011;8703;48.996;9.594;2022-11-20T12:27:21;4.47;;;3.30;;
17175;SDS011;8703;48.996;9.594;2022-11-20T12:30:08;8.17;;;3.67;;
17175;SDS011;8703;48.996;9.594;2022-11-20T12:32:48;4.70;;;3.23;;
17175;SDS011;8703;48.996;9.594;2022-11-20T12:38:41;5.43;;;3.30;;
17175;SDS011;8703;48.996;9.594;2022-11-20T12:41:26;7.97;;;3.10;;
17175;SDS011;8703;48.996;9.594;2022-11-20T12:44:30;4.13;;;2.80;;
17175;SDS011;8703;48.996;9.594;2022-11-20T12:47:28;6.60;;;3.30;;
17175;SDS011;8703;48.996;9.594;2022-11-20T12:50:05;5.27;;;3.03;;
17175;SDS011;8703;48.996;9.594;2022-11-20T12:52:38;4.10;;;2.93;;
17175;SDS011;8703;48.996;9.594;2022-11-20T12:55:15;4.73;;;3.53;;
17175;SDS011;8703;48.996;9.594;2022-11-20T12:58:00;5.53;;;3.00;;
17175;SDS011;8703;48.996;9.594;2022-11-20T13:00:31;5.27;;;2.57;;
17175;SDS011;8703;48.996;9.594;2022-11-20T13:03:11;4.27;;;2.40;;
17175;SDS011;8703;48.996;9.594;2022-11-20T13:05:49;4.13;;;1.90;;
17175;SDS011;8703;48.996;9.594;2022-11-20T13:08:21;3.47;;;2.00;;
17175;SDS011;8703;48.996;9.594;2022-11-20T13:10:51;4.93;;;1.80;;
17175;SDS011;8703;48.996;9.594;2022-11-20T13:13:29;2.93;;;1.80;;
17175;SDS011;8703;48.996;9.594;2022-11-20T13:16:01;4.23;;;1.70;;
17175;SDS011;8703;48.996;9.594;2022-11-20T13:18:33;4.73;;;1.60;;
17175;SDS011;8703;48.996;9.594;2022-11-20T13:21:14;3.73;;;1.50;;
17175;SDS011;8703;48.996;9.594;2022-11-20T13:23:42;2.47;;;1.50;;
17175;SDS011;8703;48.996;9.594;2022-11-20T13:26:14;1.87;;;1.50;;
17175;SDS011;8703;48.996;9.594;2022-11-20T13:28:46;3.57;;;1.60;;
17175;SDS011;8703;48.996;9.594;2022-11-20T13:31:28;1.37;;;1.27;;
17175;SDS011;8703;48.996;9.594;2022-11-20T13:33:57;2.00;;;1.33;;
17175;SDS011;8703;48.996;9.594;2022-11-20T13:36:28;3.47;;;1.20;;
17175;SDS011;8703;48.996;9.594;2022-11-20T13:38:57;2.90;;;1.50;;
17175;SDS011;8703;48.996;9.594;2022-11-20T13:41:25;2.70;;;1.30;;
17175;SDS011;8703;48.996;9.594;2022-11-20T13:43:54;2.77;;;1.50;;
17175;SDS011;8703;48.996;9.594;2022-11-20T13:46:34;3.83;;;1.50;;
17175;SDS011;8703;48.996;9.594;2022-11-20T13:49:06;3.43;;;1.40;;
17175;SDS011;8703;48.996;9.594;2022-11-20T13:51:39;3.37;;;1.40;;
17175;SDS011;8703;48.996;9.594;2022-11-20T13:54:22;2.13;;;1.50;;
17175;SDS011;8703;48.996;9.594;2022-11-20T13:57:01;4.07;;;1.33;;
17175;SDS011;8703;48.996;9.594;2022-11-20T13:59:38;3.23;;;1.37;;
17175;SDS011;8703;48.996;9.594;2022-11-20T14:02:11;6.10;;;1.20;;
17175;SDS011;8703;48.996;9.594;2022-11-20T14:04:42;3.83;;;1.20;;
17175;SDS011;8703;48.996;9.594;2022-11-20T14:07:12;2.97;;;1.30;;
17175;SDS011;8703;48.996;9.594;2022-11-20T14:09:48;4.20;;;1.43;;
17175;SDS011;8703;48.996;9.594;2022-11-20T14:12:17;4.10;;;2.00;;
17175;SDS011;8703;48.996;9.594;2022-11-20T14:14:49;3.33;;;1.40;;
17175;SDS011;8703;48.996;9.594;2022-11-20T14:17:18;2.93;;;1.23;;
17175;SDS011;8703;48.996;9.594;2022-11-20T14:19:47;4.43;;;1.30;;
17175;SDS011;8703;48.996;9.594;2022-11-20T14:22:18;1.93;;;1.10;;
17175;SDS011;8703;48.996;9.594;2022-11-20T14:24:47;3.43;;;1.37;;
17175;SDS011;8703;48.996;9.594;2022-11-20T14:27:15;2.70;;;1.10;;
17175;SDS011;8703;48.996;9.594;2022-11-20T14:29:44;3.30;;;1.20;;
17175;SDS011;8703;48.996;9.594;2022-11-20T14:32:14;5.53;;;1.10;;
17175;SDS011;8703;48.996;9.594;2022-11-20T14:34:43;3.13;;;1.20;;
17175;SDS011;8703;48.996;9.594;2022-11-20T14:37:12;4.27;;;1.30;;
17175;SDS011;8703;48.996;9.594;2022-11-20T14:39:48;6.57;;;1.20;;
17175;SDS011;8703;48.996;9.594;2022-11-20T14:42:18;2.77;;;1.10;;
17175;SDS011;8703;48.996;9.594;2022-11-20T14:44:47;3.43;;;1.27;;
17175;SDS011;8703;48.996;9.594;2022-11-20T14:47:17;3.00;;;1.20;;
17175;SDS011;8703;48.996;9.594;2022-11-20T14:49:46;2.70;;;1.30;;
17175;SDS011;8703;48.996;9.594;2022-11-20T14:52:15;1.87;;;1.00;;
17175;SDS011;8703;48.996;9.594;2022-11-20T14:54:45;2.17;;;1.20;;
17175;SDS011;8703;48.996;9.594;2022-11-20T14:57:20;3.27;;;1.10;;
17175;SDS011;8703;48.996;9.594;2022-11-20T14:59:49;2.37;;;1.00;;
17175;SDS011;8703;48.996;9.594;2022-11-20T15:02:17;6.10;;;1.10;;
17175;SDS011;8703;48.996;9.594;2022-11-20T15:04:45;1.07;;;0.90;;
17175;SDS011;8703;48.996;9.594;2022-11-20T15:07:24;1.77;;;0.93;;
17175;SDS011;8703;48.996;9.594;2022-11-20T15:10:00;3.80;;;1.00;;
17175;SDS011;8703;48.996;9.594;2022-11-20T15:12:31;1.90;;;1.03;;
17175;SDS011;8703;48.996;9.594;2022-11-20T15:15:00;2.77;;;1.20;;
17175;SDS011;8703;48.996;9.594;2022-11-20T15:17:30;3.73;;;0.80;;
17175;SDS011;8703;48.996;9.594;2022-11-20T15:19:58;3.23;;;0.90;;